Main page
METAR-TAF:

METAR-TAF

Airports :

Bolzano, Italy

latitude: 46-28N, longitude: 011-20E, elevation: 262 m

Current weather observation

The report was made 1 hour and 55 minutes ago, at 20:50 UTC
Wind 3 kt from variable directions
Temperature 16°C
Humidity 68%
Pressure 1013 hPa
Visibility 10 km or more
Scattered clouds at a height of 8000 ft

METAR: LIPB 262050Z VRB03KT 9999 SCT080 16/10 Q1013

Time: 00:45 (22:45 UTC)

Forecast

The report was made 5 hours and 45 minutes ago, at 17:00 UTC
Forecast valid from 26 at 18 UTC to 27 at 18 UTC
Wind 6 kt from variable directions
Visibility 10 km or more
Scattered clouds at a height of 4000 ft

TAF: LIPB 261700Z 2618/2718 VRB06KT 9999 SCT040

Weather observations and forecasts of more than 4000 airports (METAR and TAF reports).

The available stations are represented by yellow and red dots on the map.

Hover mouse over dot to see the name of the station.

Then click to see weather observations and forecasts.

To change the map : click on the green buttons with a black cross to zoom in, on the green button with a dash to zoom out, or on the green arrows for adjacent maps.


METAR-TAF: